createdAt,value
2023-07-25T00:00:26.936Z,1.77
2023-07-25T00:02:54.955Z,2.35
2023-07-25T00:05:22.780Z,1.90
2023-07-25T00:07:50.735Z,2.53
2023-07-25T00:10:19.830Z,2.20
2023-07-25T00:12:47.929Z,2.67
2023-07-25T00:15:16.113Z,3.13
2023-07-25T00:17:44.139Z,2.50
2023-07-25T00:20:12.566Z,2.10
2023-07-25T00:22:40.525Z,2.17
2023-07-25T00:25:09.012Z,2.28
2023-07-25T00:27:37.104Z,2.47
2023-07-25T00:30:05.666Z,2.08
2023-07-25T00:32:35.408Z,2.30
2023-07-25T00:35:04.055Z,2.40
2023-07-25T00:37:32.623Z,2.45
2023-07-25T00:40:00.567Z,2.47
2023-07-25T00:42:28.726Z,2.20
2023-07-25T00:44:58.796Z,2.10
2023-07-25T00:47:27.148Z,2.22
2023-07-25T00:49:56.794Z,2.78
2023-07-25T00:52:24.766Z,2.15
2023-07-25T00:54:53.111Z,2.28
2023-07-25T00:57:22.028Z,2.22
2023-07-25T00:59:50.414Z,3.00
2023-07-25T01:02:18.661Z,2.28
2023-07-25T01:04:46.692Z,2.03
2023-07-25T01:07:15.173Z,1.70
2023-07-25T01:09:46.122Z,1.70
2023-07-25T01:12:14.620Z,1.60
2023-07-25T01:14:44.535Z,1.85
2023-07-25T01:17:20.567Z,1.60
2023-07-25T01:19:48.775Z,1.48
2023-07-25T01:22:17.264Z,1.80
2023-07-25T01:24:49.335Z,1.50
2023-07-25T01:27:18.371Z,1.27
2023-07-25T01:29:46.513Z,2.45
2023-07-25T01:32:14.501Z,1.45
2023-07-25T01:34:42.446Z,1.45
2023-07-25T01:37:12.208Z,1.50
2023-07-25T01:39:40.139Z,1.55
2023-07-25T01:42:08.225Z,1.75
2023-07-25T01:44:36.043Z,1.40
2023-07-25T01:47:04.225Z,1.30
2023-07-25T01:49:32.583Z,1.50
2023-07-25T01:52:00.841Z,1.45
2023-07-25T01:54:28.733Z,1.67
2023-07-25T01:56:56.809Z,1.73
2023-07-25T01:59:24.883Z,1.70
2023-07-25T02:01:52.889Z,1.50
2023-07-25T02:04:21.533Z,1.45
2023-07-25T02:06:49.293Z,1.42
2023-07-25T02:09:17.067Z,1.40
2023-07-25T02:11:44.803Z,2.42
2023-07-25T02:14:12.721Z,2.15
2023-07-25T02:16:41.480Z,1.13
2023-07-25T02:19:09.744Z,1.40
2023-07-25T02:21:37.760Z,1.50
2023-07-25T02:24:05.853Z,1.45
2023-07-25T02:26:33.870Z,1.40
2023-07-25T02:29:02.076Z,1.50
2023-07-25T02:31:30.559Z,1.70
2023-07-25T02:33:58.723Z,1.17
2023-07-25T02:36:29.191Z,1.40
2023-07-25T02:38:57.089Z,2.33
2023-07-25T02:41:25.033Z,1.23
2023-07-25T02:43:52.758Z,1.48
2023-07-25T02:46:20.798Z,1.25
2023-07-25T02:48:49.010Z,1.10
2023-07-25T02:51:16.832Z,1.10
2023-07-25T02:53:44.633Z,1.20
2023-07-25T02:56:12.717Z,1.58
2023-07-25T02:58:40.610Z,1.25
2023-07-25T03:01:08.571Z,1.70
2023-07-25T03:03:36.549Z,1.38
2023-07-25T03:06:04.375Z,1.13
2023-07-25T03:08:32.509Z,1.30
2023-07-25T03:11:00.327Z,1.35
2023-07-25T03:13:28.049Z,1.20
2023-07-25T03:15:56.082Z,1.17
2023-07-25T03:18:23.907Z,1.20
2023-07-25T03:20:51.617Z,1.13
2023-07-25T03:23:19.462Z,1.23
2023-07-25T03:25:47.470Z,1.42
2023-07-25T03:28:15.474Z,1.27
2023-07-25T03:30:43.228Z,1.30
2023-07-25T03:33:10.970Z,1.27
2023-07-25T03:35:38.821Z,1.45
2023-07-25T03:38:06.695Z,1.80
2023-07-25T03:40:34.468Z,1.83
2023-07-25T03:43:02.397Z,1.85
2023-07-25T03:45:32.927Z,1.23
2023-07-25T03:48:01.053Z,1.40
2023-07-25T03:50:29.012Z,2.20
2023-07-25T03:52:58.680Z,1.30
2023-07-25T03:55:26.902Z,1.42
2023-07-25T03:57:55.019Z,1.40
2023-07-25T04:00:26.090Z,0.98
2023-07-25T04:05:45.868Z,1.38
2023-07-25T04:08:13.704Z,1.85
2023-07-25T04:10:41.713Z,1.38
2023-07-25T04:13:09.388Z,1.60
2023-07-25T04:15:37.403Z,1.30
2023-07-25T04:18:05.334Z,1.45
2023-07-25T04:20:33.201Z,2.13
2023-07-25T04:23:01.862Z,1.50
2023-07-25T04:25:30.030Z,1.55
2023-07-25T04:27:57.761Z,1.30
2023-07-25T04:30:25.590Z,1.42
2023-07-25T04:32:53.482Z,1.40
2023-07-25T04:35:21.553Z,1.13
2023-07-25T04:37:49.460Z,1.23
2023-07-25T04:40:17.445Z,1.30
2023-07-25T04:42:45.185Z,1.23
2023-07-25T04:45:13.387Z,1.60
2023-07-25T04:47:41.350Z,1.77
2023-07-25T04:50:09.980Z,1.23
2023-07-25T04:52:37.878Z,1.77
2023-07-25T04:55:06.150Z,1.50
2023-07-25T04:57:35.249Z,1.35
2023-07-25T05:00:03.184Z,1.92
2023-07-25T05:02:31.153Z,1.70
2023-07-25T05:04:59.235Z,2.10
2023-07-25T05:07:27.322Z,2.20
2023-07-25T05:09:58.404Z,1.70
2023-07-25T05:12:26.532Z,1.48
2023-07-25T05:14:54.476Z,1.58
2023-07-25T05:17:22.525Z,1.30
2023-07-25T05:19:51.047Z,1.40
2023-07-25T05:22:21.531Z,1.83
2023-07-25T05:24:49.542Z,1.73
2023-07-25T05:27:18.145Z,2.03
2023-07-25T05:29:46.184Z,1.60
2023-07-25T05:32:13.952Z,1.50
2023-07-25T05:34:42.149Z,1.50
2023-07-25T05:37:10.085Z,1.60
2023-07-25T05:39:38.237Z,1.13
2023-07-25T05:42:06.523Z,1.75
2023-07-25T05:44:34.419Z,1.58
2023-07-25T05:47:06.638Z,1.35
2023-07-25T05:49:34.823Z,2.30
2023-07-25T05:52:02.843Z,1.17
2023-07-25T05:54:31.401Z,1.60
2023-07-25T05:56:59.502Z,1.30
2023-07-25T05:59:27.772Z,1.20
2023-07-25T06:01:55.466Z,1.67
2023-07-25T06:04:23.763Z,2.35
2023-07-25T06:06:51.704Z,2.28
2023-07-25T06:09:19.481Z,2.95
2023-07-25T06:11:47.263Z,2.40
2023-07-25T06:14:15.409Z,2.42
2023-07-25T06:16:43.514Z,2.22
2023-07-25T06:19:11.425Z,3.25
2023-07-25T06:21:39.226Z,3.03
2023-07-25T06:24:07.725Z,2.33
2023-07-25T06:26:35.558Z,2.97
2023-07-25T06:29:03.443Z,2.95
2023-07-25T06:31:31.723Z,3.42
2023-07-25T06:34:00.334Z,2.22
2023-07-25T06:36:28.091Z,1.95
2023-07-25T06:38:55.924Z,1.52
2023-07-25T06:41:23.845Z,1.60
2023-07-25T06:43:51.755Z,1.42
2023-07-25T06:46:20.654Z,1.20
2023-07-25T06:48:48.684Z,1.10
2023-07-25T06:51:16.778Z,2.13
2023-07-25T06:53:49.459Z,1.60
2023-07-25T06:56:20.640Z,1.73
2023-07-25T07:01:16.266Z,1.20
2023-07-25T07:03:44.348Z,1.15
2023-07-25T07:06:12.413Z,1.48
2023-07-25T07:08:40.238Z,1.40
2023-07-25T07:11:08.115Z,1.58
2023-07-25T07:13:36.387Z,1.33
2023-07-25T07:16:05.260Z,1.35
2023-07-25T07:18:33.496Z,1.48
2023-07-25T07:21:01.354Z,1.63
2023-07-25T07:23:29.220Z,1.40
2023-07-25T07:25:57.135Z,2.45
2023-07-25T07:28:24.965Z,2.00
2023-07-25T07:30:53.741Z,2.25
2023-07-25T07:33:21.618Z,2.35
2023-07-25T07:35:49.671Z,2.08
2023-07-25T07:38:17.679Z,2.10
2023-07-25T07:40:45.764Z,2.10
2023-07-25T07:43:15.559Z,2.30
2023-07-25T07:45:43.343Z,2.20
2023-07-25T07:48:11.103Z,2.13
2023-07-25T07:50:39.383Z,2.22
2023-07-25T07:53:07.267Z,1.73
2023-07-25T07:55:35.649Z,1.67
2023-07-25T07:58:03.984Z,1.60
2023-07-25T08:00:34.315Z,1.58
2023-07-25T08:03:02.237Z,1.70
2023-07-25T08:05:30.083Z,1.52
2023-07-25T08:07:58.051Z,1.80
2023-07-25T08:10:27.430Z,1.45
2023-07-25T08:12:55.420Z,1.60
2023-07-25T08:15:23.519Z,2.17
2023-07-25T08:17:51.823Z,1.90
2023-07-25T08:20:19.854Z,1.70
2023-07-25T08:22:49.402Z,1.65
2023-07-25T08:25:17.324Z,1.35
2023-07-25T08:27:45.293Z,1.55
2023-07-25T08:30:13.759Z,1.30
2023-07-25T08:32:41.732Z,1.65
2023-07-25T08:35:09.934Z,1.40
2023-07-25T08:37:37.754Z,1.70
2023-07-25T08:40:06.258Z,1.33
2023-07-25T08:42:34.825Z,1.63
2023-07-25T08:45:03.455Z,1.35
2023-07-25T08:47:34.790Z,1.40
2023-07-25T08:50:03.230Z,1.33
2023-07-25T08:52:33.578Z,1.60
2023-07-25T08:55:01.517Z,1.50
2023-07-25T08:57:30.242Z,1.40
2023-07-25T08:59:58.538Z,1.67
2023-07-25T09:02:28.158Z,1.95
2023-07-25T09:04:56.726Z,1.67
2023-07-25T09:07:24.729Z,1.33
2023-07-25T09:09:53.177Z,2.50
2023-07-25T09:12:21.202Z,1.35
2023-07-25T09:14:49.352Z,0.88
2023-07-25T09:17:18.027Z,1.40
2023-07-25T09:19:46.007Z,1.20
2023-07-25T09:22:31.099Z,1.58
2023-07-25T09:25:00.306Z,1.20
2023-07-25T09:27:28.562Z,1.25
2023-07-25T09:29:57.454Z,1.02
2023-07-25T09:32:27.526Z,1.23
2023-07-25T09:35:02.086Z,1.10
2023-07-25T09:37:33.636Z,1.63
2023-07-25T09:40:01.902Z,1.13
2023-07-25T09:42:29.813Z,0.82
2023-07-25T09:44:58.690Z,1.50
2023-07-25T09:47:30.984Z,1.63
2023-07-25T09:49:59.075Z,1.42
2023-07-25T09:52:27.892Z,1.25
2023-07-25T09:54:55.821Z,1.23
2023-07-25T09:57:24.269Z,0.95
2023-07-25T09:59:53.484Z,1.20
2023-07-25T10:02:22.359Z,1.10
2023-07-25T10:04:51.003Z,1.02
2023-07-25T10:07:20.704Z,1.45
2023-07-25T10:09:51.033Z,1.13
2023-07-25T10:12:19.116Z,1.23
2023-07-25T10:14:48.648Z,1.20
2023-07-25T10:17:16.897Z,0.98
2023-07-25T10:19:56.021Z,0.80
2023-07-25T10:22:36.991Z,1.30
2023-07-25T10:25:18.687Z,1.15
2023-07-25T10:27:46.751Z,0.80
2023-07-25T10:30:28.624Z,0.75
2023-07-25T10:33:01.284Z,1.60
2023-07-25T10:35:50.907Z,1.13
2023-07-25T10:38:33.710Z,1.20
2023-07-25T10:41:11.754Z,1.25
2023-07-25T10:43:55.196Z,0.93
2023-07-25T10:46:38.776Z,0.85
2023-07-25T10:49:16.663Z,1.45
2023-07-25T10:51:55.084Z,1.02
2023-07-25T10:54:26.044Z,1.05
2023-07-25T10:57:16.155Z,1.77
2023-07-25T11:00:11.016Z,0.90
2023-07-25T11:02:42.473Z,1.50
2023-07-25T11:05:16.749Z,1.27
2023-07-25T11:07:47.553Z,1.15
2023-07-25T11:10:29.126Z,1.13
2023-07-25T11:13:01.436Z,1.40
2023-07-25T11:15:45.615Z,1.60
2023-07-25T11:18:14.984Z,1.23
2023-07-25T11:20:43.255Z,0.90
2023-07-25T11:23:12.140Z,1.35
2023-07-25T11:25:40.417Z,0.90
2023-07-25T11:28:08.726Z,1.20
2023-07-25T11:30:45.489Z,1.02
2023-07-25T11:33:13.549Z,0.90
2023-07-25T11:35:41.509Z,1.02
2023-07-25T11:38:11.202Z,1.00
2023-07-25T11:40:43.051Z,1.08
2023-07-25T11:43:16.347Z,1.00
2023-07-25T11:45:46.107Z,1.00
2023-07-25T11:48:20.519Z,1.17
2023-07-25T11:50:52.923Z,0.93
2023-07-25T11:53:23.823Z,1.08
2023-07-25T11:55:52.763Z,0.80
2023-07-25T11:58:21.931Z,0.80
2023-07-25T12:00:56.109Z,0.88
2023-07-25T12:03:25.665Z,1.20
2023-07-25T12:06:01.183Z,0.90
2023-07-25T12:08:41.178Z,0.80
2023-07-25T12:11:11.425Z,1.37
2023-07-25T12:13:51.406Z,1.30
2023-07-25T12:16:33.326Z,0.90
2023-07-25T12:19:03.596Z,0.98
2023-07-25T12:21:33.137Z,0.82
2023-07-25T12:24:03.632Z,1.20
2023-07-25T12:26:53.374Z,0.90
2023-07-25T12:29:22.768Z,1.30
2023-07-25T12:31:50.830Z,0.82
2023-07-25T12:34:20.466Z,1.20
2023-07-25T12:36:49.213Z,1.10
2023-07-25T12:39:17.425Z,0.82
2023-07-25T12:41:46.160Z,1.05
2023-07-25T12:44:16.484Z,1.02
2023-07-25T12:46:44.466Z,0.80
2023-07-25T12:49:15.248Z,1.00
2023-07-25T12:51:45.917Z,1.00
2023-07-25T12:54:13.872Z,0.95
2023-07-25T12:56:42.075Z,1.00
2023-07-25T12:59:10.173Z,0.90
2023-07-25T13:01:38.180Z,0.98
2023-07-25T13:04:06.160Z,0.90
2023-07-25T13:06:36.432Z,0.90
2023-07-25T13:09:04.450Z,0.70
2023-07-25T13:11:32.833Z,1.05
2023-07-25T13:14:01.109Z,0.70
2023-07-25T13:16:29.553Z,1.00
2023-07-25T13:18:57.824Z,1.00
2023-07-25T13:21:25.855Z,0.90
2023-07-25T13:23:53.817Z,0.70
2023-07-25T13:26:21.708Z,0.80
2023-07-25T13:28:49.984Z,1.38
2023-07-25T13:31:18.077Z,1.10
2023-07-25T13:33:46.165Z,0.75
2023-07-25T13:36:14.401Z,1.10
2023-07-25T13:38:42.543Z,0.88
2023-07-25T13:41:12.149Z,1.33
2023-07-25T13:43:40.304Z,1.10
2023-07-25T13:46:09.315Z,0.98
2023-07-25T13:48:37.249Z,0.82
2023-07-25T13:51:05.346Z,0.80
2023-07-25T13:53:33.430Z,1.38
2023-07-25T13:56:01.234Z,0.93
2023-07-25T13:58:38.550Z,0.82
2023-07-25T14:01:06.605Z,0.93
2023-07-25T14:03:34.868Z,0.95
2023-07-25T14:06:02.961Z,1.00
2023-07-25T14:08:30.959Z,0.98
2023-07-25T14:10:58.959Z,0.90
2023-07-25T14:13:27.645Z,1.00
2023-07-25T14:15:56.275Z,0.90
2023-07-25T14:18:24.413Z,0.77
2023-07-25T14:20:54.304Z,0.90
2023-07-25T14:23:24.121Z,1.15
2023-07-25T14:25:52.734Z,1.35
2023-07-25T14:28:20.877Z,0.75
2023-07-25T14:30:48.690Z,0.80
2023-07-25T14:33:18.700Z,0.80
2023-07-25T14:35:47.083Z,1.53
2023-07-25T14:38:15.679Z,1.00
2023-07-25T14:40:43.874Z,0.80
2023-07-25T14:43:12.352Z,1.10
2023-07-25T14:45:40.128Z,1.08
2023-07-25T14:48:08.359Z,1.35
2023-07-25T14:50:37.949Z,0.90
2023-07-25T14:53:06.443Z,1.23
2023-07-25T14:55:35.097Z,1.05
2023-07-25T14:58:02.991Z,1.10
2023-07-25T15:00:31.874Z,1.35
2023-07-25T15:02:59.999Z,0.82
2023-07-25T15:05:28.168Z,0.68
2023-07-25T15:07:59.069Z,0.60
2023-07-25T15:10:27.609Z,0.70
2023-07-25T15:12:56.657Z,0.90
2023-07-25T15:15:25.093Z,0.95
2023-07-25T15:17:54.036Z,1.00
2023-07-25T15:20:24.298Z,0.93
2023-07-25T15:22:52.446Z,1.02
2023-07-25T15:25:20.531Z,1.00
2023-07-25T15:27:48.669Z,0.90
2023-07-25T15:30:16.905Z,1.27
2023-07-25T15:32:45.172Z,0.88
2023-07-25T15:35:13.457Z,0.88
2023-07-25T15:37:42.207Z,1.13
2023-07-25T15:40:11.562Z,0.98
2023-07-25T15:42:39.809Z,0.90
2023-07-25T15:45:08.316Z,0.65
2023-07-25T15:47:36.556Z,1.90
2023-07-25T15:50:05.117Z,0.80
2023-07-25T15:52:33.244Z,1.25
2023-07-25T15:55:01.312Z,1.00
2023-07-25T15:57:29.246Z,0.85
2023-07-25T15:59:57.082Z,0.70
2023-07-25T16:02:25.079Z,1.00
2023-07-25T16:04:53.117Z,1.10
2023-07-25T16:07:21.886Z,1.08
2023-07-25T16:09:49.831Z,0.98
2023-07-25T16:12:17.723Z,0.80
2023-07-25T16:14:45.834Z,0.70
2023-07-25T16:17:14.257Z,0.50
2023-07-25T16:19:43.036Z,0.57
2023-07-25T16:22:10.826Z,0.88
2023-07-25T16:24:41.855Z,0.75
2023-07-25T16:29:38.209Z,0.63
2023-07-25T16:32:06.459Z,1.00
2023-07-25T16:34:35.928Z,0.50
2023-07-25T16:37:03.922Z,0.40
2023-07-25T16:39:31.803Z,0.52
2023-07-25T16:41:59.960Z,0.57
2023-07-25T16:44:27.987Z,0.50
2023-07-25T16:46:56.649Z,0.43
2023-07-25T16:49:24.830Z,0.35
2023-07-25T16:51:52.923Z,0.82
2023-07-25T16:54:21.285Z,0.50
2023-07-25T16:56:49.629Z,0.65
2023-07-25T16:59:17.525Z,0.47
2023-07-25T17:01:45.405Z,0.52
2023-07-25T17:04:13.363Z,0.63
2023-07-25T17:06:41.236Z,0.38
2023-07-25T17:09:09.759Z,0.65
2023-07-25T17:11:38.445Z,0.50
2023-07-25T17:14:06.731Z,0.98
2023-07-25T17:16:34.466Z,0.43
2023-07-25T17:19:02.513Z,0.65
2023-07-25T17:21:40.535Z,0.52
2023-07-25T17:24:09.663Z,0.70
2023-07-25T17:26:37.997Z,0.93
2023-07-25T17:29:07.204Z,0.57
2023-07-25T17:31:35.745Z,0.57
2023-07-25T17:34:04.525Z,0.68
2023-07-25T17:36:32.484Z,0.43
2023-07-25T17:39:00.882Z,0.68
2023-07-25T17:41:31.227Z,0.82
2023-07-25T17:43:59.445Z,0.98
2023-07-25T17:46:28.488Z,0.60
2023-07-25T17:48:58.353Z,0.43
2023-07-25T17:51:27.112Z,0.77
2023-07-25T17:53:55.021Z,1.00
2023-07-25T17:56:23.783Z,0.75
2023-07-25T17:58:51.814Z,0.95
2023-07-25T18:01:19.935Z,0.52
2023-07-25T18:03:48.984Z,0.70
2023-07-25T18:06:17.024Z,0.85
2023-07-25T18:08:46.535Z,0.60
2023-07-25T18:11:14.451Z,0.82
2023-07-25T18:13:42.615Z,0.70
2023-07-25T18:16:10.489Z,0.55
2023-07-25T18:18:38.386Z,1.10
2023-07-25T18:21:09.909Z,0.77
2023-07-25T18:23:38.211Z,1.00
2023-07-25T18:26:08.869Z,0.90
2023-07-25T18:28:37.440Z,1.60
2023-07-25T18:31:05.893Z,1.00
2023-07-25T18:33:34.033Z,0.70
2023-07-25T18:36:01.870Z,0.82
2023-07-25T18:38:29.729Z,0.88
2023-07-25T18:40:57.521Z,0.95
2023-07-25T18:43:26.769Z,0.88
2023-07-25T18:45:57.576Z,0.55
2023-07-25T18:48:25.988Z,0.70
2023-07-25T18:50:54.263Z,0.70
2023-07-25T18:53:22.361Z,0.85
2023-07-25T18:55:50.452Z,0.82
2023-07-25T18:58:18.603Z,0.68
2023-07-25T19:00:46.757Z,1.13
2023-07-25T19:03:14.644Z,1.00
2023-07-25T19:05:42.759Z,1.10
2023-07-25T19:08:10.685Z,0.60
2023-07-25T19:10:38.511Z,1.33
2023-07-25T19:13:06.546Z,0.80
2023-07-25T19:15:34.254Z,1.20
2023-07-25T19:18:02.423Z,0.80
2023-07-25T19:20:30.614Z,0.90
2023-07-25T19:23:15.075Z,1.00
2023-07-25T19:25:59.898Z,1.10
2023-07-25T19:28:29.141Z,1.02
2023-07-25T19:30:58.297Z,0.80
2023-07-25T19:33:29.599Z,0.80
2023-07-25T19:35:59.890Z,0.90
2023-07-25T19:38:28.949Z,0.88
2023-07-25T19:40:57.306Z,0.90
2023-07-25T19:43:25.473Z,1.00
2023-07-25T19:46:03.074Z,0.82
2023-07-25T19:48:31.250Z,0.85
2023-07-25T19:50:59.740Z,1.05
2023-07-25T19:53:27.807Z,1.00
2023-07-25T19:55:56.384Z,0.77
2023-07-25T19:58:24.611Z,0.90
2023-07-25T20:00:52.606Z,0.93
2023-07-25T20:03:20.866Z,0.80
2023-07-25T20:05:49.889Z,0.98
2023-07-25T20:08:18.219Z,1.08
2023-07-25T20:10:46.621Z,0.95
2023-07-25T20:13:14.702Z,1.10
2023-07-25T20:15:43.162Z,0.98
2023-07-25T20:18:11.592Z,0.90
2023-07-25T20:20:39.490Z,0.80
2023-07-25T20:23:08.440Z,0.93
2023-07-25T20:25:37.287Z,1.10
2023-07-25T20:28:05.366Z,0.85
2023-07-25T20:30:33.216Z,0.75
2023-07-25T20:33:04.806Z,1.48
2023-07-25T20:35:33.134Z,0.70
2023-07-25T20:38:01.253Z,0.90
2023-07-25T20:40:29.394Z,0.73
2023-07-25T20:42:57.287Z,0.75
2023-07-25T20:45:25.642Z,0.80
2023-07-25T20:47:55.185Z,1.05
2023-07-25T20:50:23.027Z,1.00
2023-07-25T20:52:54.713Z,0.90
2023-07-25T20:55:23.000Z,1.00
2023-07-25T20:57:50.872Z,1.35
2023-07-25T21:00:18.856Z,0.95
2023-07-25T21:02:48.715Z,1.10
2023-07-25T21:05:17.264Z,0.85
2023-07-25T21:07:45.298Z,1.20
2023-07-25T21:10:13.290Z,0.98
2023-07-25T21:12:44.213Z,1.13
2023-07-25T21:15:15.260Z,0.88
2023-07-25T21:17:43.370Z,1.15
2023-07-25T21:20:12.253Z,1.00
2023-07-25T21:22:40.130Z,0.90
2023-07-25T21:25:11.361Z,0.93
2023-07-25T21:27:39.349Z,1.08
2023-07-25T21:30:08.012Z,0.98
2023-07-25T21:32:35.875Z,0.93
2023-07-25T21:35:05.151Z,1.10
2023-07-25T21:37:33.442Z,1.27
2023-07-25T21:40:01.435Z,0.98
2023-07-25T21:42:29.381Z,1.00
2023-07-25T21:44:57.604Z,1.30
2023-07-25T21:47:25.316Z,1.23
2023-07-25T21:49:53.251Z,0.80
2023-07-25T21:52:21.192Z,1.13
2023-07-25T21:54:49.213Z,1.00
2023-07-25T21:57:17.365Z,1.20
2023-07-25T21:59:45.170Z,0.88
2023-07-25T22:02:26.008Z,1.00
2023-07-25T22:04:55.300Z,0.80
2023-07-25T22:07:23.412Z,0.90
2023-07-25T22:09:52.449Z,1.00
2023-07-25T22:12:20.752Z,1.00
2023-07-25T22:14:48.896Z,1.25
2023-07-25T22:17:16.893Z,0.85
2023-07-25T22:19:44.943Z,0.93
2023-07-25T22:22:12.806Z,0.73
2023-07-25T22:24:40.751Z,1.20
2023-07-25T22:27:08.644Z,0.90
2023-07-25T22:29:36.848Z,0.90
2023-07-25T22:32:05.084Z,1.15
2023-07-25T22:34:32.987Z,1.10
2023-07-25T22:37:01.168Z,1.40
2023-07-25T22:39:29.307Z,1.40
2023-07-25T22:41:57.519Z,0.98
2023-07-25T22:44:25.410Z,1.10
2023-07-25T22:46:53.230Z,1.40
2023-07-25T22:49:21.287Z,1.00
2023-07-25T22:51:49.357Z,1.00
2023-07-25T22:54:18.012Z,1.02
2023-07-25T22:56:45.957Z,0.95
2023-07-25T22:59:13.849Z,0.98
2023-07-25T23:01:41.851Z,1.38
2023-07-25T23:04:09.907Z,0.90
2023-07-25T23:06:39.294Z,0.75
2023-07-25T23:09:07.082Z,0.90
2023-07-25T23:11:35.309Z,1.00
2023-07-25T23:14:03.316Z,0.82
2023-07-25T23:16:34.540Z,1.08
2023-07-25T23:19:02.954Z,0.82
2023-07-25T23:21:30.927Z,0.90
2023-07-25T23:23:59.395Z,0.90
2023-07-25T23:26:27.582Z,0.98
2023-07-25T23:28:55.533Z,1.13
2023-07-25T23:31:23.670Z,1.00
2023-07-25T23:33:51.469Z,1.00
2023-07-25T23:36:19.499Z,1.20
2023-07-25T23:38:47.461Z,0.90
2023-07-25T23:41:15.626Z,0.70
2023-07-25T23:43:43.834Z,0.90
2023-07-25T23:46:12.230Z,0.98
2023-07-25T23:48:40.192Z,0.93
2023-07-25T23:51:07.931Z,0.90
2023-07-25T23:53:35.978Z,0.90
2023-07-25T23:56:05.125Z,1.13
2023-07-25T23:58:33.076Z,0.95
